createdAt,value
2023-01-08T00:01:23.472Z,24.7
2023-01-08T00:06:48.002Z,24.2
2023-01-08T00:11:55.439Z,30.3
2023-01-08T00:17:18.720Z,32.2
2023-01-08T00:22:41.498Z,33.1
2023-01-08T00:28:03.615Z,26.9
2023-01-08T00:33:11.735Z,26.1
2023-01-08T00:38:35.021Z,31.6
2023-01-08T00:43:57.698Z,33.4
2023-01-08T00:49:21.341Z,31.8
2023-01-08T00:54:29.335Z,30.5
2023-01-08T00:59:51.607Z,26.7
2023-01-08T01:05:00.456Z,25.8
2023-01-08T01:10:24.238Z,24.7
2023-01-08T01:15:47.050Z,25.8
2023-01-08T01:20:54.997Z,31.1
2023-01-08T01:26:19.023Z,32.8
2023-01-08T01:31:41.648Z,33.1
2023-01-08T01:36:49.337Z,31.2
2023-01-08T01:42:12.972Z,28.9
2023-01-08T01:47:19.896Z,26.2
2023-01-08T01:52:43.030Z,25.3
2023-01-08T01:58:06.740Z,24.5
2023-01-08T02:03:31.343Z,28.3
2023-01-08T02:08:54.396Z,31.5
2023-01-08T02:14:18.161Z,32.8
2023-01-08T02:19:41.323Z,32.8
2023-01-08T02:24:48.567Z,31.1
2023-01-08T02:30:12.206Z,28.7
2023-01-08T02:35:34.449Z,26.2
2023-01-08T02:40:42.035Z,25.1
2023-01-08T02:45:50.493Z,24.4
2023-01-08T02:51:13.023Z,28.1
2023-01-08T02:56:36.399Z,31.1
2023-01-08T03:02:00.470Z,30.1
2023-01-08T03:07:24.507Z,21.3
2023-01-08T03:12:47.221Z,29.7
2023-01-08T03:18:11.380Z,32.3
2023-01-08T03:23:35.787Z,33.4
2023-01-08T03:28:43.882Z,31.6
2023-01-08T03:34:07.499Z,30.5
2023-01-08T03:39:29.653Z,26.5
2023-01-08T03:44:36.600Z,25.8
2023-01-08T03:50:00.048Z,24.6
2023-01-08T03:55:22.797Z,26.4
2023-01-08T04:00:45.759Z,31
2023-01-08T04:06:10.893Z,32.6
2023-01-08T04:11:32.794Z,33.5
2023-01-08T04:16:56.334Z,31.4
2023-01-08T04:22:20.277Z,29
2023-01-08T04:27:26.787Z,26.3
2023-01-08T04:32:49.394Z,25.3
2023-01-08T04:38:13.349Z,24.4
2023-01-08T04:43:19.698Z,28.1
2023-01-08T04:48:42.566Z,31.2
2023-01-08T04:54:06.013Z,32.6
2023-01-08T04:59:28.621Z,33.4
2023-01-08T05:04:53.446Z,31.5
2023-01-08T05:10:18.945Z,30.4
2023-01-08T05:15:26.638Z,26.4
2023-01-08T05:20:52.096Z,25.8
2023-01-08T05:26:16.071Z,24.5
2023-01-08T05:31:39.152Z,27.6
2023-01-08T05:37:02.367Z,28.4
2023-01-08T05:42:10.616Z,20.1
2023-01-08T05:47:17.694Z,28.8
2023-01-08T05:52:40.701Z,31.6
2023-01-08T05:58:07.339Z,32.8
2023-01-08T06:03:30.248Z,33.6
2023-01-08T06:08:52.784Z,31.4
2023-01-08T06:14:15.948Z,29.6
2023-01-08T06:19:39.197Z,26.3
2023-01-08T06:24:16.220Z,25.3
2023-01-08T06:28:52.157Z,24.4
2023-01-08T06:34:15.276Z,27.1
2023-01-08T06:39:38.576Z,31.1
2023-01-08T06:44:48.543Z,32.5
2023-01-08T06:50:11.763Z,33.3
2023-01-08T06:55:22.173Z,31.8
2023-01-08T07:01:03.406Z,30.6
2023-01-08T07:06:27.909Z,26.6
2023-01-08T07:11:51.460Z,25.8
2023-01-08T07:17:14.766Z,24.5
2023-01-08T07:22:38.165Z,27.5
2023-01-08T07:28:01.185Z,31.3
2023-01-08T07:33:17.764Z,32.7
2023-01-08T07:38:44.169Z,33.4
2023-01-08T07:44:07.655Z,31.1
2023-01-08T07:49:30.763Z,28.4
2023-01-08T07:54:37.830Z,25.9
2023-01-08T07:59:45.679Z,25.1
2023-01-08T08:05:11.935Z,24.4
2023-01-08T08:10:34.466Z,28.9
2023-01-08T08:15:58.011Z,26.9
2023-01-08T08:21:21.021Z,21.3
2023-01-08T08:26:43.873Z,30.3
2023-01-08T08:32:07.873Z,32.3
2023-01-08T08:37:30.730Z,30.8
2023-01-08T08:42:53.672Z,28
2023-01-08T08:48:19.456Z,25.9
2023-01-08T08:53:44.268Z,24.7
2023-01-08T08:59:06.801Z,24.1
2023-01-08T09:04:32.404Z,23.4
2023-01-08T09:09:55.797Z,23.1
2023-01-08T09:15:18.379Z,26.4
2023-01-08T09:20:41.313Z,31.4
2023-01-08T09:26:04.738Z,31.1
2023-01-08T09:31:27.642Z,30.1
2023-01-08T09:36:50.899Z,26.3
2023-01-08T09:42:02.527Z,25.4
2023-01-08T09:47:27.670Z,24.9
2023-01-08T09:52:35.344Z,28.1
2023-01-08T09:58:09.204Z,31.9
2023-01-08T10:03:33.697Z,31.1
2023-01-08T10:08:56.738Z,30.1
2023-01-08T10:14:20.166Z,28.6
2023-01-08T10:19:43.538Z,25.5
2023-01-08T10:25:06.429Z,24.3
2023-01-08T10:30:15.939Z,23.6
2023-01-08T10:35:40.110Z,25.3
2023-01-08T10:41:05.413Z,31.4
2023-01-08T10:46:30.593Z,31.4
2023-01-08T10:51:53.659Z,30.4
2023-01-08T10:56:45.035Z,26.5
2023-01-08T11:01:54.040Z,25.6
2023-01-08T11:07:16.586Z,25.1
2023-01-08T11:12:24.079Z,27.1
2023-01-08T11:17:47.201Z,31.9
2023-01-08T11:23:10.435Z,31.3
2023-01-08T11:28:34.925Z,30.3
2023-01-08T11:33:58.197Z,29.3
2023-01-08T11:39:21.061Z,28.4
2023-01-08T11:44:46.672Z,27.5
2023-01-08T11:49:56.650Z,26.9
2023-01-08T11:54:47.789Z,31.8
2023-01-08T12:00:09.962Z,31.7
2023-01-08T12:05:33.222Z,30.6
2023-01-08T12:10:55.458Z,29.6
2023-01-08T12:16:02.205Z,28.8
2023-01-08T12:21:25.542Z,27.9
2023-01-08T12:26:47.357Z,27.1
2023-01-08T12:32:35.215Z,31.2
2023-01-08T12:37:57.965Z,31.8
2023-01-08T12:43:32.724Z,30.6
2023-01-08T12:48:54.699Z,29.6
2023-01-08T12:54:17.327Z,28.8
2023-01-08T12:59:39.945Z,27.9
2023-01-08T13:04:48.882Z,26.2
2023-01-08T13:10:11.674Z,31.8
2023-01-08T13:15:35.632Z,31.7
2023-01-08T13:20:42.659Z,30.6
2023-01-08T13:26:05.261Z,29.7
2023-01-08T13:30:56.498Z,28.8
2023-01-08T13:36:19.185Z,28
2023-01-08T13:41:58.976Z,27.1
2023-01-08T13:47:06.634Z,31.3
2023-01-08T13:51:58.344Z,31.9
2023-01-08T13:57:05.326Z,30.7
2023-01-08T14:02:13.235Z,29.8
2023-01-08T14:07:21.022Z,29
2023-01-08T14:12:44.141Z,28.2
2023-01-08T14:18:07.136Z,27.1
2023-01-08T14:23:30.120Z,32.2
2023-01-08T14:28:52.566Z,31.1
2023-01-08T14:34:15.759Z,30
2023-01-08T14:39:38.195Z,29.1
2023-01-08T14:44:55.705Z,28.2
2023-01-08T14:50:18.313Z,31.5
2023-01-08T14:55:41.005Z,31.4
2023-01-08T15:01:04.061Z,30.1
2023-01-08T15:06:29.643Z,29.2
2023-01-08T15:11:52.090Z,28.3
2023-01-08T15:17:15.041Z,31.4
2023-01-08T15:22:37.694Z,31.4
2023-01-08T15:27:44.956Z,30.2
2023-01-08T15:33:07.871Z,29.3
2023-01-08T15:37:28.483Z,28.4
2023-01-08T15:42:38.105Z,27.8
2023-01-08T15:47:46.958Z,26.9
2023-01-08T15:53:10.323Z,29.9
2023-01-08T15:58:33.246Z,31.8
2023-01-08T16:03:41.669Z,30.8
2023-01-08T16:08:48.800Z,28.1
2023-01-08T16:13:41.293Z,26
2023-01-08T16:18:48.961Z,25
2023-01-08T16:24:11.772Z,24
2023-01-08T16:29:33.883Z,23.4
2023-01-08T16:34:59.372Z,23
2023-01-08T16:40:22.287Z,24.4
2023-01-08T16:45:29.431Z,30.8
2023-01-08T16:50:52.372Z,31.6
2023-01-08T16:55:44.342Z,30.6
2023-01-08T17:06:31.514Z,25.7
2023-01-08T17:11:23.309Z,24.4
2023-01-08T17:16:46.144Z,23.8
2023-01-08T17:22:08.952Z,23.2
2023-01-08T17:27:00.627Z,22.8
2023-01-08T17:32:23.863Z,26.2
2023-01-08T17:37:47.230Z,29.9
2023-01-08T17:43:14.134Z,26.3
2023-01-08T17:48:37.410Z,31.5
2023-01-08T17:54:00.114Z,31.1
2023-01-08T17:59:07.919Z,30.1
2023-01-08T18:04:33.216Z,26.4
2023-01-08T18:09:56.673Z,25.5
2023-01-08T18:15:19.826Z,24.1
2023-01-08T18:20:11.105Z,23.7
2023-01-08T18:25:19.114Z,22.9
2023-01-08T18:30:40.628Z,22.6
2023-01-08T18:36:04.172Z,29.8
2023-01-08T18:41:11.695Z,32
2023-01-08T18:46:34.974Z,30.9
2023-01-08T18:51:58.313Z,29.8
2023-01-08T18:57:07.074Z,26
2023-01-08T19:02:15.321Z,25.3
2023-01-08T19:07:22.683Z,23.9
2023-01-08T19:12:30.976Z,23.5
2023-01-08T19:17:56.201Z,22.8
2023-01-08T19:23:04.330Z,25.3
2023-01-08T19:28:13.401Z,30.3
2023-01-08T19:33:41.335Z,32
2023-01-08T19:39:03.910Z,30.7
2023-01-08T19:44:11.049Z,29
2023-01-08T19:49:37.015Z,25.9
2023-01-08T19:55:02.842Z,24.9
2023-01-08T20:00:13.871Z,23.8
2023-01-08T20:05:28.971Z,23.4
2023-01-08T20:10:59.929Z,29.7
2023-01-08T20:16:15.975Z,31.8
2023-01-08T20:21:47.579Z,30.8
2023-01-08T20:26:58.663Z,29.8
2023-01-08T20:32:23.513Z,30.7
2023-01-08T20:37:15.745Z,32.2
2023-01-08T20:42:38.460Z,33
2023-01-08T20:48:00.553Z,28.1
2023-01-08T20:53:44.261Z,25.8
2023-01-08T20:59:06.378Z,31.8
2023-01-08T21:03:42.829Z,33.4
2023-01-08T21:08:50.238Z,33.2
2023-01-08T21:14:12.611Z,31.4
2023-01-08T21:18:48.950Z,30.1
2023-01-08T21:23:56.640Z,32.2
2023-01-08T21:28:47.382Z,33.4
2023-01-08T21:33:39.137Z,32.4
2023-01-08T21:38:46.252Z,31
2023-01-08T21:43:53.109Z,27.3
2023-01-08T21:49:00.377Z,25.9
2023-01-08T21:54:09.613Z,24.8
2023-01-08T21:59:16.804Z,24.3
2023-01-08T22:04:24.036Z,29.8
2023-01-08T22:09:31.268Z,32.1
2023-01-08T22:14:54.374Z,33.2
2023-01-08T22:20:17.227Z,32.8
2023-01-08T22:25:24.399Z,31.1
2023-01-08T22:30:31.854Z,30.2
2023-01-08T22:35:57.073Z,32.2
2023-01-08T22:41:03.811Z,33.3
2023-01-08T22:46:29.371Z,27.1
2023-01-08T22:51:36.692Z,26.9
2023-01-08T22:56:59.098Z,31.8
2023-01-08T23:02:21.571Z,33.5
2023-01-08T23:07:29.205Z,31.8
2023-01-08T23:12:52.324Z,30.6
2023-01-08T23:17:30.522Z,26.5
2023-01-08T23:22:42.373Z,25.8
2023-01-08T23:28:05.692Z,24.7
2023-01-08T23:33:28.679Z,26.4
2023-01-08T23:39:09.115Z,31.1
2023-01-08T23:44:16.276Z,32.8
2023-01-08T23:49:39.342Z,33.3
2023-01-08T23:54:45.514Z,31.3
